Time;durP1;ratioP1;P1;durP2;ratioP2;P2;SDS_P1;SDS_P2;PMS_P1;PMS_P2;Temp;Humidity;BMP_temperature;BMP_pressure;BME280_temperature;BME280_humidity;BME280_pressure;Samples;Min_cycle;Max_cycle;Signal;HPM_P1;HPM_P2
2021/12/01 00:01:41;;;;;;;;;12.00;9.00;;;;;9.23;84.92;100161.88;5022483;27;45655;-73
2021/12/01 00:04:07;;;;;;;;;14.75;13.50;;;;;9.23;85.15;100151.38;5075486;27;45481;-73
2021/12/01 00:06:34;;;;;;;;;14.25;12.75;;;;;9.20;85.34;100147.97;5041890;27;46276;-71
2021/12/01 00:09:00;;;;;;;;;7.25;6.75;;;;;9.18;84.83;100144.56;5032537;27;45508;-71
2021/12/01 00:11:26;;;;;;;;;9.25;8.75;;;;;9.25;84.94;100154.81;5032305;28;45448;-73
2021/12/01 00:13:51;;;;;;;;;10.50;10.25;;;;;9.26;84.73;100131.13;5033295;27;45313;-74
2021/12/01 00:16:17;;;;;;;;;9.25;7.25;;;;;9.22;84.92;100129.56;5032264;27;46184;-72
2021/12/01 00:18:42;;;;;;;;;6.50;6.50;;;;;9.26;84.13;100112.75;5093410;27;45420;-73
2021/12/01 00:21:07;;;;;;;;;14.50;12.00;;;;;9.27;84.85;100118.84;5091739;27;45393;-72
2021/12/01 00:23:33;;;;;;;;;12.75;9.25;;;;;9.24;84.91;100088.34;5066308;27;45612;-73
2021/12/01 00:25:58;;;;;;;;;8.50;8.00;;;;;9.29;85.00;100104.75;5115681;27;45367;-72
2021/12/01 00:28:24;;;;;;;;;8.75;7.25;;;;;9.30;85.29;100082.84;5116663;27;45431;-73
2021/12/01 00:30:51;;;;;;;;;11.00;10.00;;;;;9.20;84.77;100066.63;5118503;27;45330;-72
2021/12/01 00:33:22;;;;;;;;;7.00;7.00;;;;;9.31;85.26;100068.78;5118288;27;45480;-73
2021/12/01 00:35:54;;;;;;;;;8.00;8.00;;;;;9.32;85.16;100059.13;5050738;27;45419;-72
2021/12/01 00:38:20;;;;;;;;;9.00;7.75;;;;;9.32;85.01;100057.38;5011444;28;45507;-72
2021/12/01 00:40:47;;;;;;;;;10.00;9.00;;;;;9.27;85.11;100038.34;5012400;28;45542;-71
2021/12/01 00:43:17;;;;;;;;;10.50;9.50;;;;;9.33;84.78;100027.59;5011445;28;45586;-73
2021/12/01 00:45:50;;;;;;;;;9.75;8.25;;;;;9.24;84.96;100007.00;5011795;28;47053;-73
2021/12/01 00:48:17;;;;;;;;;8.00;8.00;;;;;9.30;85.16;100017.22;5012009;28;45466;-72
2021/12/01 00:50:43;;;;;;;;;8.00;6.75;;;;;9.31;85.16;100007.56;5011304;28;45435;-71
2021/12/01 00:53:09;;;;;;;;;9.75;8.50;;;;;9.34;85.32;100010.91;5012079;28;45260;-72
2021/12/01 00:55:34;;;;;;;;;11.00;9.00;;;;;9.30;85.42;99990.09;5011279;28;47419;-73
2021/12/01 00:58:00;;;;;;;;;9.75;7.25;;;;;9.39;85.29;99989.69;5011711;28;45552;-71
2021/12/01 01:00:27;;;;;;;;;8.75;7.00;;;;;9.35;84.64;99983.75;5011620;28;45432;-72
2021/12/01 01:02:54;;;;;;;;;7.50;7.00;;;;;9.38;85.28;99969.63;5012529;28;45514;-71
2021/12/01 01:05:19;;;;;;;;;10.50;9.00;;;;;9.38;85.14;99980.13;5011844;28;45476;-72
2021/12/01 01:07:46;;;;;;;;;9.75;8.50;;;;;9.41;85.20;99974.72;5012701;28;45408;-72
2021/12/01 01:18:37;;;;;;;;;8.00;6.00;;;;;9.44;84.62;99963.25;5097593;27;45402;-73
2021/12/01 01:21:05;;;;;;;;;7.25;6.00;;;;;9.26;84.63;99910.69;5119123;27;45524;-77
2021/12/01 01:23:30;;;;;;;;;7.75;6.75;;;;;9.43;84.44;99932.69;5118601;27;45718;-73
2021/12/01 01:25:59;;;;;;;;;6.00;6.00;;;;;9.44;84.13;99934.38;5152286;27;47096;-72
2021/12/01 01:28:25;;;;;;;;;4.00;4.00;;;;;9.46;84.57;99935.16;5119245;27;45226;-71
2021/12/01 01:30:52;;;;;;;;;5.50;5.00;;;;;9.48;84.80;99925.44;5119717;27;45345;-74
2021/12/01 01:33:19;;;;;;;;;5.00;5.00;;;;;9.46;84.45;99917.63;5118933;27;45295;-72
2021/12/01 01:35:44;;;;;;;;;6.25;6.25;;;;;9.42;84.39;99907.34;5119302;27;45876;-72
2021/12/01 01:38:09;;;;;;;;;4.25;4.25;;;;;9.47;84.85;99914.06;5118935;27;45503;-71
2021/12/01 01:40:37;;;;;;;;;5.00;5.00;;;;;9.43;84.75;99894.13;5153466;27;45416;-75
2021/12/01 01:43:03;;;;;;;;;5.25;5.25;;;;;9.45;84.82;99892.28;5118865;27;45338;-74
2021/12/01 01:45:29;;;;;;;;;9.25;6.25;;;;;9.44;84.87;99887.13;5119151;27;45659;-73
2021/12/01 01:48:04;;;;;;;;;8.25;5.75;;;;;9.34;85.22;99886.69;5122070;27;45314;-75
2021/12/01 01:50:37;;;;;;;;;7.75;6.50;;;;;9.39;85.12;99883.88;5154592;27;45368;-71
2021/12/01 01:53:09;;;;;;;;;6.75;5.75;;;;;9.36;85.34;99879.59;5120772;27;45314;-72
2021/12/01 01:55:39;;;;;;;;;11.00;8.00;;;;;9.34;85.27;99887.56;5119372;27;46060;-72
2021/12/01 01:58:04;;;;;;;;;10.00;7.50;;;;;9.34;85.21;99868.31;5119684;27;45290;-72
2021/12/01 02:00:31;;;;;;;;;10.25;7.75;;;;;9.32;85.35;99873.66;5119492;27;45691;-71
2021/12/01 02:02:59;;;;;;;;;6.75;6.75;;;;;9.25;85.40;99856.50;5119352;27;45502;-72
2021/12/01 02:05:25;;;;;;;;;5.00;5.00;;;;;9.28;85.76;99879.09;5118886;27;46320;-71
2021/12/01 02:07:52;;;;;;;;;7.75;7.75;;;;;9.31;85.85;99865.84;5119064;27;45326;-71
2021/12/01 02:10:18;;;;;;;;;8.00;8.00;;;;;9.29;85.71;99858.06;5118667;27;45263;-71
2021/12/01 02:12:43;;;;;;;;;8.25;8.25;;;;;9.28;85.99;99839.72;5118955;27;45353;-74
2021/12/01 02:15:09;;;;;;;;;8.75;7.25;;;;;9.28;86.00;99839.72;5120058;27;45242;-71
2021/12/01 02:17:36;;;;;;;;;7.25;7.00;;;;;9.16;86.17;99818.41;5120241;27;45345;-71
2021/12/01 02:20:02;;;;;;;;;7.50;7.00;;;;;9.21;86.24;99829.53;5119217;27;45457;-73
2021/12/01 02:22:27;;;;;;;;;10.50;8.00;;;;;9.21;85.95;99828.69;5119251;27;45624;-71
2021/12/01 02:24:52;;;;;;;;;9.00;8.00;;;;;9.12;86.61;99800.25;5118791;27;45593;-73
2021/12/01 02:27:18;;;;;;;;;9.25;8.00;;;;;9.17;86.94;99808.75;5117149;27;45371;-72
2021/12/01 02:29:44;;;;;;;;;8.50;8.00;;;;;9.17;86.93;99803.53;5123019;27;46116;-71
2021/12/01 02:32:09;;;;;;;;;8.00;8.00;;;;;9.15;87.56;99803.56;5124473;27;45274;-72
2021/12/01 02:34:36;;;;;;;;;10.00;8.00;;;;;9.10;87.86;99800.31;5122376;27;46299;-71
2021/12/01 02:37:01;;;;;;;;;14.50;10.50;;;;;9.03;88.20;99786.66;5125242;27;45242;-72
2021/12/01 02:39:28;;;;;;;;;9.00;9.00;;;;;9.02;88.62;99791.94;5125387;27;45266;-74
2021/12/01 02:41:58;;;;;;;;;9.50;9.00;;;;;8.93;89.25;99768.78;5123598;27;45507;-73
2021/12/01 02:44:28;;;;;;;;;9.75;9.00;;;;;8.97;89.62;99778.19;5119332;27;45890;-72
2021/12/01 02:46:54;;;;;;;;;11.00;9.75;;;;;8.92;90.03;99765.28;5118365;27;45438;-71
2021/12/01 02:49:22;;;;;;;;;10.50;9.25;;;;;8.90;90.38;99757.50;5118539;27;45297;-73
2021/12/01 02:51:49;;;;;;;;;13.00;10.75;;;;;8.85;90.68;99738.50;5118543;27;45450;-71
2021/12/01 02:54:15;;;;;;;;;13.25;12.25;;;;;8.83;91.01;99729.00;5117020;27;45417;-72
2021/12/01 02:56:46;;;;;;;;;5.25;5.25;;;;;8.79;91.37;99730.06;5118345;27;45245;-70
2021/12/01 02:59:12;;;;;;;;;12.75;11.25;;;;;8.76;92.07;99716.16;5120114;27;45399;-71
2021/12/01 03:01:37;;;;;;;;;10.00;10.00;;;;;8.75;91.46;99711.84;5152418;27;45334;-71
2021/12/01 03:04:03;;;;;;;;;12.00;10.25;;;;;8.76;91.28;99702.22;5116703;27;47057;-69
2021/12/01 03:06:29;;;;;;;;;8.25;8.25;;;;;8.77;91.43;99696.06;5117899;27;45297;-73
2021/12/01 03:08:57;;;;;;;;;8.00;8.00;;;;;8.77;91.54;99672.47;5118449;27;45389;-71
2021/12/01 03:11:24;;;;;;;;;9.50;7.75;;;;;8.56;91.67;99632.38;5118213;27;45482;-72
2021/12/01 03:13:49;;;;;;;;;7.50;7.50;;;;;8.78;91.85;99655.81;5118107;27;45247;-73
2021/12/01 03:16:15;;;;;;;;;8.25;6.50;;;;;8.82;91.66;99653.88;5118863;27;45333;-71
2021/12/01 03:18:44;;;;;;;;;8.25;6.75;;;;;8.83;91.30;99653.81;5119424;27;45496;-72
2021/12/01 03:21:11;;;;;;;;;5.50;5.00;;;;;8.85;91.34;99651.97;5118386;27;45270;-72
2021/12/01 03:23:36;;;;;;;;;8.50;6.50;;;;;8.85;91.43;99648.47;5117844;27;46033;-72
2021/12/01 03:26:02;;;;;;;;;6.00;4.75;;;;;8.90;91.16;99656.97;5117466;27;45328;-70
2021/12/01 03:28:27;;;;;;;;;8.50;5.25;;;;;8.93;91.36;99650.75;5118225;27;45276;-73
2021/12/01 03:30:53;;;;;;;;;4.25;4.00;;;;;8.96;91.31;99645.34;5123032;27;45508;-72
2021/12/01 03:33:20;;;;;;;;;6.00;5.00;;;;;8.95;91.36;99634.00;5118470;27;45456;-71
2021/12/01 03:35:48;;;;;;;;;5.75;4.75;;;;;8.98;91.19;99633.00;5117291;27;45492;-70
2021/12/01 03:38:14;;;;;;;;;4.25;3.75;;;;;9.01;91.25;99638.09;5117485;27;45347;-72
2021/12/01 03:40:40;;;;;;;;;4.00;4.00;;;;;9.04;91.76;99619.59;5118510;27;45650;-71
2021/12/01 03:43:05;;;;;;;;;3.75;3.75;;;;;9.06;91.78;99617.75;5119992;27;45393;-71
2021/12/01 03:45:31;;;;;;;;;4.00;4.00;;;;;9.06;92.44;99613.34;5117483;27;45353;-72
2021/12/01 03:47:57;;;;;;;;;5.75;3.00;;;;;9.03;92.51;99594.28;5117712;27;45401;-72
2021/12/01 03:50:22;;;;;;;;;5.00;4.00;;;;;9.05;92.91;99593.31;5151085;27;45421;-71
2021/12/01 03:52:51;;;;;;;;;3.00;3.00;;;;;9.08;92.96;99586.19;5117246;27;45634;-72
2021/12/01 03:55:16;;;;;;;;;4.00;4.00;;;;;9.02;93.25;99567.22;5117616;27;45792;-72
2021/12/01 03:57:42;;;;;;;;;3.50;3.50;;;;;9.04;93.83;99575.00;5117544;27;45349;-71
2021/12/01 04:00:11;;;;;;;;;6.75;3.00;;;;;9.04;93.80;99567.13;5117891;27;45642;-72
2021/12/01 04:02:36;;;;;;;;;2.50;2.50;;;;;8.89;94.68;99537.25;5117754;27;46373;-71
2021/12/01 04:05:03;;;;;;;;;3.00;3.00;;;;;9.02;94.87;99545.38;5118717;27;45243;-72
2021/12/01 04:07:28;;;;;;;;;4.00;3.75;;;;;8.99;95.15;99548.16;5117715;27;45365;-73
2021/12/01 04:09:53;;;;;;;;;6.00;5.75;;;;;8.97;95.61;99527.22;5119947;27;45376;-72
2021/12/01 04:12:19;;;;;;;;;4.00;4.00;;;;;8.95;95.80;99523.84;5125754;27;45635;-72
2021/12/01 04:14:45;;;;;;;;;5.75;5.25;;;;;8.93;96.15;99503.88;5120532;27;45222;-71
2021/12/01 04:17:10;;;;;;;;;7.75;7.00;;;;;8.88;96.45;99499.72;5118046;27;45376;-72
2021/12/01 04:19:36;;;;;;;;;6.25;6.25;;;;;8.87;96.83;99486.66;5117064;27;45435;-71
2021/12/01 04:22:02;;;;;;;;;6.00;6.00;;;;;8.84;97.29;99479.81;5116642;27;46956;-73
2021/12/01 04:24:28;;;;;;;;;6.75;4.50;;;;;8.84;97.50;99461.47;5116985;27;45427;-72
2021/12/01 04:26:53;;;;;;;;;7.00;6.75;;;;;8.83;98.13;99472.88;5117147;27;45671;-71
2021/12/01 04:29:19;;;;;;;;;9.00;5.75;;;;;8.83;98.04;99477.25;5117665;27;45406;-71
2021/12/01 04:31:44;;;;;;;;;6.75;6.75;;;;;8.79;97.89;99462.59;5117912;27;46259;-73
2021/12/01 04:34:10;;;;;;;;;6.00;5.50;;;;;8.59;98.49;99431.25;5118402;27;45344;-71
2021/12/01 04:36:39;;;;;;;;;9.25;7.50;;;;;8.77;98.95;99447.78;5115334;27;45427;-71
2021/12/01 04:39:07;;;;;;;;;8.00;6.00;;;;;8.75;99.32;99460.13;5017108;27;45493;-72
2021/12/01 04:41:41;;;;;;;;;11.75;10.25;;;;;8.68;99.19;99432.53;5006845;28;48230;-71
2021/12/01 04:44:10;;;;;;;;;6.50;6.50;;;;;8.72;99.50;99430.63;5008194;27;45276;-73
2021/12/01 04:46:45;;;;;;;;;7.25;6.25;;;;;8.68;99.38;99422.06;5013981;27;45397;-72
2021/12/01 04:49:13;;;;;;;;;5.25;5.25;;;;;8.67;99.76;99419.53;4996778;28;45392;-72
2021/12/01 04:51:42;;;;;;;;;6.00;6.00;;;;;8.67;99.90;99401.16;5044678;27;45320;-72
2021/12/01 04:54:07;;;;;;;;;8.00;6.00;;;;;8.61;100.00;99399.69;5121038;27;45440;-72
2021/12/01 04:56:33;;;;;;;;;6.00;5.00;;;;;8.59;100.00;99388.44;5119902;27;45439;-71
2021/12/01 04:58:58;;;;;;;;;4.50;4.25;;;;;8.64;100.00;99390.84;5118323;27;45538;-72
2021/12/01 05:01:24;;;;;;;;;4.00;4.00;;;;;8.62;100.00;99391.78;5064401;27;45296;-73
2021/12/01 05:03:49;;;;;;;;;4.00;4.00;;;;;8.62;100.00;99372.56;5005434;27;45309;-72
2021/12/01 05:06:16;;;;;;;;;4.50;4.50;;;;;8.59;100.00;99378.81;5072665;27;45490;-73
2021/12/01 05:08:42;;;;;;;;;5.00;5.00;;;;;8.64;100.00;99367.25;5119649;27;45628;-72
2021/12/01 05:11:07;;;;;;;;;3.25;3.00;;;;;8.62;100.00;99364.69;5119739;27;46001;-71
2021/12/01 05:13:32;;;;;;;;;3.00;3.00;;;;;8.62;100.00;99348.97;5119809;27;45345;-72
2021/12/01 05:15:58;;;;;;;;;3.25;3.00;;;;;8.52;100.00;99340.75;5120042;27;45343;-71
2021/12/01 05:18:23;;;;;;;;;2.50;2.50;;;;;8.60;100.00;99346.44;5112526;27;45531;-72
2021/12/01 05:20:49;;;;;;;;;3.00;3.00;;;;;8.55;100.00;99352.84;5119837;27;45377;-73
2021/12/01 05:23:15;;;;;;;;;4.50;2.50;;;;;8.56;100.00;99355.38;5119162;27;45360;-71
2021/12/01 05:25:46;;;;;;;;;2.75;2.00;;;;;8.56;100.00;99347.53;5021441;27;45486;-72
2021/12/01 05:28:12;;;;;;;;;3.00;2.00;;;;;8.47;100.00;99329.59;5015963;27;45387;-71
2021/12/01 05:30:37;;;;;;;;;2.00;2.00;;;;;8.45;100.00;99323.59;5089958;27;46287;-72
2021/12/01 05:33:08;;;;;;;;;2.00;2.00;;;;;8.49;100.00;99333.03;5029783;27;45354;-72
2021/12/01 05:35:36;;;;;;;;;2.00;2.00;;;;;8.45;100.00;99316.59;5059085;27;45309;-74
2021/12/01 05:38:05;;;;;;;;;2.00;2.00;;;;;8.29;100.00;99300.78;5112422;27;45135;-73
2021/12/01 05:40:32;;;;;;;;;2.25;2.25;;;;;8.39;100.00;99308.19;5120870;27;45505;-71
2021/12/01 05:42:57;;;;;;;;;2.00;2.00;;;;;8.45;100.00;99316.59;5058884;27;45417;-72
2021/12/01 05:45:23;;;;;;;;;1.50;1.50;;;;;8.48;100.00;99310.31;5062946;27;45534;-72
2021/12/01 05:47:49;;;;;;;;;1.00;1.00;;;;;8.55;100.00;99321.38;5093896;27;45480;-72
2021/12/01 05:50:15;;;;;;;;;1.75;1.50;;;;;8.51;100.00;99298.88;5117369;27;45343;-72
2021/12/01 05:52:41;;;;;;;;;1.75;1.75;;;;;8.55;100.00;99309.13;5108460;27;45310;-72
2021/12/01 05:55:07;;;;;;;;;2.00;0.75;;;;;8.53;100.00;99286.53;5119690;27;45242;-72
2021/12/01 05:57:32;;;;;;;;;1.00;1.00;;;;;8.64;100.00;99293.84;5075701;27;45563;-71
2021/12/01 05:59:59;;;;;;;;;2.00;0.50;;;;;8.62;100.00;99284.28;5016246;28;45906;-74
2021/12/01 06:02:25;;;;;;;;;1.00;1.00;;;;;8.68;100.00;99287.50;5019228;27;45409;-72
2021/12/01 06:04:50;;;;;;;;;6.25;2.25;;;;;8.68;100.00;99280.47;5019051;28;45412;-72
2021/12/01 06:07:16;;;;;;;;;2.50;1.00;;;;;8.70;100.00;99283.03;5025133;27;45579;-72
2021/12/01 06:09:41;;;;;;;;;1.50;1.00;;;;;8.70;100.00;99272.56;5023314;27;46304;-73
2021/12/01 06:12:07;;;;;;;;;2.00;2.00;;;;;8.66;100.00;99263.16;5116200;27;45374;-72
2021/12/01 06:14:35;;;;;;;;;3.75;3.00;;;;;8.72;100.00;99265.44;5113480;27;45306;-73
2021/12/01 06:17:00;;;;;;;;;2.00;2.00;;;;;8.79;100.00;99261.56;5117997;27;45674;-72
2021/12/01 06:19:26;;;;;;;;;1.25;1.25;;;;;8.82;100.00;99258.78;5118317;27;46569;-73
2021/12/01 06:21:51;;;;;;;;;2.00;2.00;;;;;8.85;100.00;99261.22;5060271;27;45255;-73
2021/12/01 06:24:17;;;;;;;;;2.00;1.00;;;;;8.85;100.00;99244.63;5015046;28;45299;-72
2021/12/01 06:26:42;;;;;;;;;1.00;1.00;;;;;8.85;100.00;99240.25;5019383;27;45220;-73
2021/12/01 06:29:08;;;;;;;;;1.25;1.00;;;;;8.87;100.00;99225.28;5120013;27;47804;-72
2021/12/01 06:31:33;;;;;;;;;1.25;1.00;;;;;8.88;100.00;99228.75;5061866;27;45319;-73
2021/12/01 06:33:59;;;;;;;;;2.25;1.00;;;;;8.90;100.00;99240.84;5052528;27;45206;-73
2021/12/01 06:36:26;;;;;;;;;1.00;1.00;;;;;8.99;100.00;99236.84;5126727;27;45525;-72
2021/12/01 06:38:52;;;;;;;;;1.25;1.25;;;;;9.01;100.00;99231.53;5120567;27;46329;-77
2021/12/01 06:41:17;;;;;;;;;2.00;2.00;;;;;9.06;100.00;99240.88;5121439;27;45426;-73
2021/12/01 06:43:43;;;;;;;;;1.75;1.25;;;;;9.09;100.00;99228.50;5103477;27;45313;-72
2021/12/01 06:46:08;;;;;;;;;1.00;1.00;;;;;9.12;100.00;99223.91;5029975;27;45536;-72
2021/12/01 06:48:34;;;;;;;;;1.50;1.00;;;;;9.12;100.00;99200.31;5099748;27;45463;-73
2021/12/01 06:51:00;;;;;;;;;2.00;2.00;;;;;9.15;100.00;99209.81;5087879;27;45343;-72
2021/12/01 06:53:27;;;;;;;;;1.50;1.50;;;;;9.19;100.00;99212.16;5016645;27;45464;-72
2021/12/01 06:55:53;;;;;;;;;1.00;1.00;;;;;9.19;100.00;99195.56;5014101;28;45531;-73
2021/12/01 06:58:19;;;;;;;;;2.25;0.00;;;;;9.25;100.00;99210.09;5014094;27;46307;-72
2021/12/01 07:00:44;;;;;;;;;1.00;1.00;;;;;9.26;100.00;99217.03;5030004;27;45583;-74
2021/12/01 07:03:10;;;;;;;;;0.75;0.75;;;;;9.27;100.00;99192.50;5095760;27;45262;-71
2021/12/01 07:05:36;;;;;;;;;3.00;2.00;;;;;9.31;100.00;99201.88;5013781;28;45440;-72
2021/12/01 07:08:02;;;;;;;;;2.25;1.00;;;;;9.34;100.00;99204.34;5015037;27;46275;-72
2021/12/01 07:10:27;;;;;;;;;0.50;0.50;;;;;9.37;100.00;99204.16;5021423;27;45315;-72
2021/12/01 07:12:53;;;;;;;;;1.50;1.50;;;;;9.39;100.00;99198.84;5114932;27;45862;-72
2021/12/01 07:15:18;;;;;;;;;2.25;0.50;;;;;9.26;100.00;99175.06;5106793;27;45615;-72
2021/12/01 07:17:43;;;;;;;;;1.75;1.75;;;;;9.45;100.00;99187.97;5118586;27;46055;-71
2021/12/01 07:20:10;;;;;;;;;0.00;0.00;;;;;9.41;100.00;99168.09;5109299;27;45483;-72
2021/12/01 07:22:36;;;;;;;;;0.75;0.75;;;;;9.47;100.00;99188.75;5011686;27;45700;-71
2021/12/01 07:25:03;;;;;;;;;2.50;0.25;;;;;9.41;100.00;99174.19;5012320;27;45377;-73
2021/12/01 07:27:28;;;;;;;;;4.25;2.50;;;;;9.50;100.00;99181.50;5014029;28;45366;-73
2021/12/01 07:29:53;;;;;;;;;1.00;1.00;;;;;9.48;100.00;99177.31;5033545;27;45331;-73
2021/12/01 07:32:19;;;;;;;;;1.00;1.00;;;;;9.58;100.00;99182.88;5013865;27;45487;-72
2021/12/01 07:34:44;;;;;;;;;2.00;1.00;;;;;9.51;100.00;99174.50;5103658;27;45468;-72
2021/12/01 07:37:12;;;;;;;;;1.00;1.00;;;;;9.59;100.00;99195.91;5115763;27;47561;-71
2021/12/01 07:39:37;;;;;;;;;1.25;1.00;;;;;9.51;100.00;99171.88;5094163;27;45315;-72
2021/12/01 07:42:04;;;;;;;;;0.75;0.75;;;;;9.66;100.00;99199.03;5082503;27;45449;-74
2021/12/01 07:44:30;;;;;;;;;3.00;1.00;;;;;9.62;100.00;99182.59;5099112;27;45555;-72
2021/12/01 07:46:55;;;;;;;;;2.00;2.00;;;;;9.72;100.00;99197.81;5013582;27;45911;-73
2021/12/01 07:49:20;;;;;;;;;0.25;0.25;;;;;9.72;100.00;99193.41;5080599;27;45284;-73
2021/12/01 07:51:46;;;;;;;;;1.00;1.00;;;;;9.75;100.00;99200.25;5024356;27;45319;-75
2021/12/01 07:54:11;;;;;;;;;1.00;1.00;;;;;9.84;100.00;99196.25;5012952;28;45541;-73
2021/12/01 07:56:37;;;;;;;;;1.75;1.75;;;;;9.82;100.00;99184.97;5013609;27;45367;-73
2021/12/01 07:59:03;;;;;;;;;0.75;0.75;;;;;9.91;100.00;99184.44;5060275;27;45249;-75
2021/12/01 08:01:28;;;;;;;;;1.00;1.00;;;;;9.91;100.00;99164.25;5112153;27;45376;-77
2021/12/01 08:03:54;;;;;;;;;0.50;0.50;;;;;9.97;100.00;99175.31;5110937;27;45450;-78
2021/12/01 08:06:20;;;;;;;;;1.00;1.00;;;;;10.03;100.00;99167.94;5118214;27;46797;-67
2021/12/01 08:08:45;;;;;;;;;1.00;1.00;;;;;10.08;99.92;99168.50;5117160;27;45250;-74
2021/12/01 08:11:11;;;;;;;;;1.50;0.75;;;;;10.14;99.37;99166.44;5116077;27;45385;-68
2021/12/01 08:13:37;;;;;;;;;0.00;0.00;;;;;10.13;99.17;99167.38;5037312;27;45428;-70
2021/12/01 08:16:03;;;;;;;;;0.75;0.00;;;;;10.08;98.73;99158.00;5039687;27;46120;-68
2021/12/01 08:18:29;;;;;;;;;1.00;1.00;;;;;10.16;99.00;99169.81;5089891;27;45467;-68
2021/12/01 08:20:54;;;;;;;;;3.00;3.00;;;;;10.19;98.95;99169.63;5015721;27;45264;-70
2021/12/01 08:23:19;;;;;;;;;0.00;0.00;;;;;10.20;98.45;99155.53;5012905;28;45622;-71
2021/12/01 08:25:45;;;;;;;;;1.00;0.00;;;;;10.19;98.47;99144.19;5098173;27;45354;-70
2021/12/01 08:28:10;;;;;;;;;5.25;3.25;;;;;10.20;98.63;99142.41;5115894;27;45653;-70
2021/12/01 08:30:36;;;;;;;;;2.00;0.00;;;;;9.93;98.16;99112.47;5117404;27;45492;-70
2021/12/01 08:33:02;;;;;;;;;0.00;0.00;;;;;10.15;98.47;99153.22;5062689;27;45417;-69
2021/12/01 08:35:27;;;;;;;;;1.00;1.00;;;;;10.17;98.69;99147.84;5056756;27;46131;-73
2021/12/01 08:37:53;;;;;;;;;0.00;0.00;;;;;10.23;98.48;99148.31;5012198;28;45319;-70
2021/12/01 08:40:19;;;;;;;;;1.00;1.00;;;;;10.29;98.00;99148.88;5011072;28;45315;-70
2021/12/01 08:42:46;;;;;;;;;2.25;1.00;;;;;10.30;97.91;99161.91;5011834;28;45547;-71
2021/12/01 08:45:12;;;;;;;;;2.50;1.00;;;;;10.35;97.69;99164.28;5012835;28;45493;-69
2021/12/01 08:47:37;;;;;;;;;1.00;1.00;;;;;10.46;97.13;99156.59;5013540;28;45411;-72
2021/12/01 08:50:05;;;;;;;;;0.50;0.25;;;;;10.57;96.89;99148.00;5012191;28;45745;-73
2021/12/01 08:52:31;;;;;;;;;0.00;0.00;;;;;10.67;96.09;99150.91;5014108;28;45616;-67
2021/12/01 08:54:56;;;;;;;;;2.00;1.00;;;;;10.67;95.93;99143.03;5013742;28;45941;-69
2021/12/01 08:57:22;;;;;;;;;0.50;0.50;;;;;10.71;94.94;99136.63;5012911;28;45211;-69
2021/12/01 08:59:48;;;;;;;;;2.00;0.50;;;;;10.76;95.29;99141.59;5016121;28;45492;-69
2021/12/01 09:02:14;;;;;;;;;1.25;1.00;;;;;10.64;95.21;99127.44;5017758;28;45589;-72
2021/12/01 09:04:40;;;;;;;;;0.50;0.50;;;;;10.68;94.30;99144.72;5012472;28;45224;-72
2021/12/01 09:07:05;;;;;;;;;3.50;1.00;;;;;10.70;94.77;99150.72;5010413;28;45452;-75
2021/12/01 09:09:31;;;;;;;;;3.00;2.75;;;;;10.77;93.43;99138.03;5012605;28;46033;-73
2021/12/01 09:11:56;;;;;;;;;1.50;1.50;;;;;10.95;94.05;99147.38;5012068;28;45602;-73
2021/12/01 09:14:25;;;;;;;;;1.50;1.00;;;;;11.17;93.92;99153.03;5010584;28;46879;-72
2021/12/01 09:16:53;;;;;;;;;6.25;5.75;;;;;11.33;92.16;99151.06;5010319;28;45396;-73
2021/12/01 09:19:19;;;;;;;;;0.75;0.75;;;;;11.49;90.78;99144.78;5011889;28;45569;-66
2021/12/01 09:21:45;;;;;;;;;0.25;0.25;;;;;11.59;90.36;99151.09;5012042;28;45364;-70
2021/12/01 09:24:10;;;;;;;;;6.00;1.50;;;;;11.63;89.38;99149.94;5011677;28;45670;-69
2021/12/01 09:26:36;;;;;;;;;1.75;0.50;;;;;11.60;88.08;99142.25;5011675;28;45502;-71
2021/12/01 09:29:02;;;;;;;;;0.00;0.00;;;;;11.40;88.11;99114.63;5012192;28;45404;-70
2021/12/01 09:31:28;;;;;;;;;2.75;1.00;;;;;11.59;88.33;99142.34;5014643;28;45665;-70
2021/12/01 09:33:53;;;;;;;;;0.75;0.75;;;;;11.53;86.82;99136.56;5013834;27;45559;-75
2021/12/01 09:36:19;;;;;;;;;3.00;0.75;;;;;11.43;86.99;99139.91;5011619;28;45408;-73
2021/12/01 09:38:45;;;;;;;;;1.25;0.00;;;;;11.44;86.01;99138.97;5015610;28;45326;-72
2021/12/01 09:41:11;;;;;;;;;0.25;0.00;;;;;11.38;86.63;99137.59;5015229;28;45527;-72
2021/12/01 09:43:37;;;;;;;;;2.00;0.75;;;;;11.36;86.43;99140.34;5014391;28;46197;-73
2021/12/01 09:46:05;;;;;;;;;0.75;0.75;;;;;11.32;85.84;99144.13;5015830;28;45268;-72
2021/12/01 09:48:33;;;;;;;;;0.75;0.75;;;;;11.33;85.57;99153.69;5015238;28;45382;-71
2021/12/01 09:50:59;;;;;;;;;0.00;0.00;;;;;11.23;84.96;99155.25;5013606;28;45305;-70
2021/12/01 09:53:24;;;;;;;;;1.50;0.00;;;;;11.25;84.41;99159.47;5014561;28;45454;-71
2021/12/01 09:55:50;;;;;;;;;1.50;0.75;;;;;11.24;84.43;99163.03;5014665;28;45469;-74
2021/12/01 09:58:17;;;;;;;;;1.50;0.75;;;;;11.22;84.14;99145.69;5014804;28;45381;-73
2021/12/01 10:00:53;;;;;;;;;2.50;1.00;;;;;11.27;83.78;99148.84;5014713;28;45442;-73
2021/12/01 10:03:19;;;;;;;;;0.75;0.75;;;;;11.30;83.91;99169.69;5014414;28;46382;-71
2021/12/01 10:06:03;;;;;;;;;3.00;1.00;;;;;11.33;83.92;99161.59;5014278;28;45384;-71
2021/12/01 10:08:35;;;;;;;;;1.00;1.00;;;;;11.42;84.64;99169.84;5014339;28;45315;-73
2021/12/01 10:11:17;;;;;;;;;1.75;1.75;;;;;11.44;84.82;99166.13;5014450;28;45379;-73
2021/12/01 10:13:46;;;;;;;;;0.00;0.00;;;;;11.40;86.60;99167.28;5013816;28;45449;-71
2021/12/01 10:16:15;;;;;;;;;0.75;0.75;;;;;11.30;91.79;99167.06;5013144;28;45232;-77
2021/12/01 10:18:44;;;;;;;;;2.50;1.00;;;;;11.10;98.52;99171.00;5016689;28;45229;-72
2021/12/01 10:21:22;;;;;;;;;3.00;1.25;;;;;10.92;99.13;99167.75;5014550;28;45375;-73
2021/12/01 10:23:54;;;;;;;;;0.00;0.00;;;;;10.81;99.88;99168.47;5014072;28;45432;-71
2021/12/01 10:26:30;;;;;;;;;3.00;1.50;;;;;10.74;99.24;99185.56;5015084;28;45341;-71
2021/12/01 10:29:05;;;;;;;;;0.25;0.25;;;;;10.61;95.59;99178.47;5015130;28;45379;-70
2021/12/01 10:31:41;;;;;;;;;1.50;1.00;;;;;10.44;90.14;99186.53;5014393;28;45481;-71
2021/12/01 10:34:19;;;;;;;;;2.00;0.00;;;;;10.19;90.29;99186.25;5014680;28;47430;-72
2021/12/01 10:36:46;;;;;;;;;1.50;1.50;;;;;9.88;91.49;99161.81;5014073;28;45196;-74
2021/12/01 10:39:12;;;;;;;;;3.25;1.00;;;;;9.73;92.70;99181.13;5014473;28;45864;-70
2021/12/01 10:41:41;;;;;;;;;3.00;2.75;;;;;9.63;98.38;99179.03;5014050;28;45343;-68
2021/12/01 10:44:12;;;;;;;;;3.25;2.75;;;;;9.52;100.00;99185.81;5012901;28;46359;-70
2021/12/01 10:46:50;;;;;;;;;4.50;2.00;;;;;9.47;99.49;99183.50;5014146;28;45392;-70
2021/12/01 10:49:16;;;;;;;;;2.00;2.00;;;;;9.49;97.78;99177.19;5014844;28;45310;-71
2021/12/01 10:51:43;;;;;;;;;4.50;3.00;;;;;9.52;96.49;99165.69;5014936;28;45520;-72
2021/12/01 10:54:18;;;;;;;;;8.50;8.00;;;;;9.58;96.39;99180.25;5017939;28;45328;-68
2021/12/01 10:56:44;;;;;;;;;8.75;7.00;;;;;9.59;95.68;99171.44;5018384;28;45211;-73
2021/12/01 10:59:16;;;;;;;;;3.00;3.00;;;;;9.61;95.02;99186.16;5014377;28;45192;-72
2021/12/01 11:01:41;;;;;;;;;5.75;5.00;;;;;9.62;94.79;99172.09;5014129;28;45351;-73
2021/12/01 11:04:08;;;;;;;;;8.50;6.75;;;;;9.73;94.46;99171.47;5014604;28;46441;-73
2021/12/01 11:06:41;;;;;;;;;7.00;7.00;;;;;9.90;93.62;99166.97;5014259;28;45298;-69
2021/12/01 11:09:07;;;;;;;;;5.75;5.00;;;;;10.00;92.74;99173.38;5014125;28;45336;-74
2021/12/01 11:11:44;;;;;;;;;7.50;7.00;;;;;10.06;92.33;99172.13;5013882;28;45554;-71
2021/12/01 11:14:16;;;;;;;;;6.00;5.50;;;;;10.03;91.84;99157.41;5013077;28;47967;-69
2021/12/01 11:16:43;;;;;;;;;8.50;7.25;;;;;10.16;91.93;99169.81;5013875;28;45403;-69
2021/12/01 11:19:10;;;;;;;;;7.00;6.25;;;;;10.19;91.33;99164.38;5018251;28;45282;-73
2021/12/01 11:21:38;;;;;;;;;3.75;3.50;;;;;10.15;90.97;99153.22;5019782;28;45186;-71
2021/12/01 11:24:10;;;;;;;;;8.00;8.00;;;;;10.15;91.02;99150.59;5018592;28;45891;-73
2021/12/01 11:26:37;;;;;;;;;11.25;6.75;;;;;10.11;90.76;99145.59;5016380;28;45314;-73
2021/12/01 11:29:08;;;;;;;;;10.50;5.00;;;;;10.03;89.78;99156.56;5013954;28;45366;-74
2021/12/01 11:31:44;;;;;;;;;5.25;4.50;;;;;9.98;89.09;99164.75;5018332;28;45366;-72
2021/12/01 11:34:12;;;;;;;;;8.00;5.75;;;;;9.96;89.68;99158.72;5015847;28;46250;-72
2021/12/01 11:36:44;;;;;;;;;9.75;4.75;;;;;10.02;89.72;99155.72;5013935;28;45431;-74
2021/12/01 11:39:20;;;;;;;;;9.75;8.75;;;;;10.07;89.89;99158.06;5014649;28;45384;-73
2021/12/01 11:41:47;;;;;;;;;7.00;7.00;;;;;10.08;89.51;99152.72;5014608;28;45361;-73
2021/12/01 11:44:14;;;;;;;;;8.25;6.25;;;;;10.18;88.17;99157.41;5013414;28;45343;-75